createdAt,value
2018-07-14T00:00:25.413Z,26.27
2018-07-14T00:00:56.588Z,26.37
2018-07-14T00:01:27.773Z,25.43
2018-07-14T00:01:59.027Z,25.33
2018-07-14T00:02:30.227Z,24.33
2018-07-14T00:03:01.409Z,24.87
2018-07-14T00:03:33.952Z,25.67
2018-07-14T00:04:05.133Z,26.00
2018-07-14T00:04:36.328Z,24.80
2018-07-14T00:05:07.610Z,25.60
2018-07-14T00:05:38.803Z,26.87
2018-07-14T00:06:10.061Z,25.73
2018-07-14T00:06:41.236Z,24.47
2018-07-14T00:07:12.411Z,25.93
2018-07-14T00:07:43.637Z,26.30
2018-07-14T00:08:14.824Z,24.60
2018-07-14T00:08:46.000Z,26.70
2018-07-14T00:09:17.172Z,25.67
2018-07-14T00:09:48.349Z,26.80
2018-07-14T00:10:19.586Z,28.03
2018-07-14T00:10:50.764Z,27.93
2018-07-14T00:11:21.978Z,27.03
2018-07-14T00:11:53.145Z,27.07
2018-07-14T00:12:24.348Z,25.33
2018-07-14T00:12:55.609Z,25.57
2018-07-14T00:13:26.854Z,27.07
2018-07-14T00:13:58.061Z,27.00
2018-07-14T00:14:29.237Z,26.53
2018-07-14T00:15:00.436Z,26.73
2018-07-14T00:15:31.661Z,27.33
2018-07-14T00:16:02.901Z,26.87
2018-07-14T00:16:34.128Z,26.97
2018-07-14T00:17:05.425Z,26.80
2018-07-14T00:17:36.616Z,27.17
2018-07-14T00:18:07.792Z,25.37
2018-07-14T00:18:39.070Z,27.17
2018-07-14T00:19:10.256Z,26.53
2018-07-14T00:19:41.484Z,26.37
2018-07-14T00:21:08.986Z,25.87
2018-07-14T00:21:40.160Z,27.23
2018-07-14T00:22:11.360Z,27.23
2018-07-14T00:22:42.653Z,25.67
2018-07-14T00:23:15.916Z,26.37
2018-07-14T00:23:47.132Z,27.47
2018-07-14T00:24:18.444Z,28.20
2018-07-14T00:24:49.677Z,26.50
2018-07-14T00:25:20.857Z,28.80
2018-07-14T00:25:52.125Z,27.43
2018-07-14T00:26:23.352Z,27.97
2018-07-14T00:26:54.630Z,26.13
2018-07-14T00:27:27.125Z,27.27
2018-07-14T00:27:58.304Z,26.27
2018-07-14T00:28:29.480Z,26.20
2018-07-14T00:29:00.705Z,26.50
2018-07-14T00:29:31.934Z,26.47
2018-07-14T00:30:05.889Z,25.77
2018-07-14T00:30:37.129Z,26.20
2018-07-14T00:31:47.185Z,26.57
2018-07-14T00:32:18.410Z,26.97
2018-07-14T00:32:49.592Z,25.80
2018-07-14T00:33:20.771Z,25.47
2018-07-14T00:33:51.997Z,25.57
2018-07-14T00:34:23.482Z,25.83
2018-07-14T00:34:54.688Z,25.33
2018-07-14T00:35:25.913Z,26.07
2018-07-14T00:35:57.150Z,25.47
2018-07-14T00:36:28.369Z,26.80
2018-07-14T00:36:59.592Z,26.53
2018-07-14T00:37:30.826Z,27.20
2018-07-14T00:38:02.064Z,24.63
2018-07-14T00:38:33.345Z,25.43
2018-07-14T00:39:04.590Z,24.53
2018-07-14T00:39:35.817Z,26.07
2018-07-14T00:40:07.042Z,24.67
2018-07-14T00:40:38.216Z,23.77
2018-07-14T00:41:09.396Z,23.57
2018-07-14T00:41:40.625Z,24.23
2018-07-14T00:42:11.816Z,23.93
2018-07-14T00:42:43.006Z,24.03
2018-07-14T00:43:15.445Z,24.83
2018-07-14T00:43:46.680Z,25.70
2018-07-14T00:44:17.868Z,24.33
2018-07-14T00:44:49.068Z,23.47
2018-07-14T00:45:20.240Z,23.57
2018-07-14T00:45:51.360Z,24.40
2018-07-14T00:46:22.486Z,24.47
2018-07-14T00:46:53.614Z,24.40
2018-07-14T00:47:24.754Z,23.97
2018-07-14T00:47:56.408Z,24.80
2018-07-14T00:48:27.519Z,24.83
2018-07-14T00:48:58.633Z,24.80
2018-07-14T00:49:29.743Z,24.13
2018-07-14T00:50:00.929Z,21.63
2018-07-14T00:50:32.965Z,24.63
2018-07-14T00:51:04.143Z,24.97
2018-07-14T00:51:35.361Z,23.47
2018-07-14T00:52:06.588Z,22.70
2018-07-14T00:52:37.767Z,22.73
2018-07-14T00:53:09.236Z,22.13
2018-07-14T00:53:40.462Z,21.73
2018-07-14T00:54:11.716Z,23.23
2018-07-14T00:54:42.923Z,22.80
2018-07-14T00:55:14.152Z,22.47
2018-07-14T00:55:45.343Z,22.30
2018-07-14T00:56:16.513Z,22.30
2018-07-14T00:56:48.436Z,22.50
2018-07-14T00:57:19.604Z,22.23
2018-07-14T00:57:50.833Z,22.93
2018-07-14T00:58:22.017Z,23.03
2018-07-14T00:58:54.312Z,23.43
2018-07-14T00:59:25.680Z,22.60
2018-07-14T01:00:04.273Z,22.80
2018-07-14T01:00:35.499Z,22.20
2018-07-14T01:01:06.679Z,22.93
2018-07-14T01:01:37.947Z,22.30
2018-07-14T01:02:09.135Z,22.70
2018-07-14T01:02:40.312Z,21.23
2018-07-14T01:03:12.346Z,23.07
2018-07-14T01:03:43.521Z,22.20
2018-07-14T01:04:14.702Z,22.40
2018-07-14T01:04:45.951Z,22.90
2018-07-14T01:05:17.181Z,21.67
2018-07-14T01:05:48.408Z,21.80
2018-07-14T01:06:19.594Z,22.63
2018-07-14T01:06:50.835Z,21.97
2018-07-14T01:07:22.053Z,21.00
2018-07-14T01:07:53.234Z,20.03
2018-07-14T01:08:24.462Z,20.80
2018-07-14T01:08:55.640Z,22.30
2018-07-14T01:09:26.873Z,20.57
2018-07-14T01:09:58.100Z,20.90
2018-07-14T01:10:29.373Z,20.80
2018-07-14T01:11:00.605Z,21.93
2018-07-14T01:11:31.788Z,21.63
2018-07-14T01:12:03.002Z,21.57
2018-07-14T01:12:34.184Z,21.77
2018-07-14T01:13:05.362Z,21.17
2018-07-14T01:13:36.532Z,22.50
2018-07-14T01:14:07.738Z,20.77
2018-07-14T01:14:38.977Z,22.40
2018-07-14T01:15:10.794Z,22.00
2018-07-14T01:15:42.010Z,19.13
2018-07-14T01:16:13.237Z,21.57
2018-07-14T01:16:44.416Z,22.80
2018-07-14T01:17:15.650Z,22.77
2018-07-14T01:17:47.040Z,23.30
2018-07-14T01:18:18.147Z,22.20
2018-07-14T01:18:49.316Z,22.23
2018-07-14T01:19:21.653Z,21.83
2018-07-14T01:19:52.844Z,22.40
2018-07-14T01:20:24.025Z,23.30
2018-07-14T01:20:56.295Z,22.60
2018-07-14T01:21:27.546Z,22.63
2018-07-14T01:21:58.729Z,22.43
2018-07-14T01:22:29.932Z,23.37
2018-07-14T01:23:01.153Z,22.03
2018-07-14T01:23:32.390Z,20.57
2018-07-14T01:24:03.572Z,21.10
2018-07-14T01:24:34.777Z,21.30
2018-07-14T01:25:06.009Z,19.67
2018-07-14T01:25:37.184Z,19.97
2018-07-14T01:26:08.357Z,21.90
2018-07-14T01:26:39.578Z,21.30
2018-07-14T01:27:10.833Z,21.90
2018-07-14T01:27:42.062Z,20.20
2018-07-14T01:28:13.266Z,21.20
2018-07-14T01:28:44.507Z,20.50
2018-07-14T01:29:15.723Z,19.33
2018-07-14T01:29:46.993Z,20.30
2018-07-14T01:30:18.180Z,21.33
2018-07-14T01:30:49.349Z,19.67
2018-07-14T01:31:20.524Z,19.77
2018-07-14T01:31:51.749Z,20.60
2018-07-14T01:32:22.942Z,21.43
2018-07-14T01:32:54.117Z,20.50
2018-07-14T01:33:25.345Z,19.80
2018-07-14T01:33:56.620Z,20.97
2018-07-14T01:34:27.865Z,20.13
2018-07-14T01:34:59.096Z,20.80
2018-07-14T01:35:30.285Z,20.17
2018-07-14T01:36:01.514Z,20.77
2018-07-14T01:36:32.697Z,20.83
2018-07-14T01:37:03.886Z,20.37
2018-07-14T01:37:35.106Z,20.43
2018-07-14T01:38:06.288Z,21.33
2018-07-14T01:38:37.513Z,20.23
2018-07-14T01:39:08.733Z,21.67
2018-07-14T01:39:39.900Z,22.20
2018-07-14T01:40:11.074Z,21.47
2018-07-14T01:40:42.401Z,21.60
2018-07-14T01:41:13.529Z,22.97
2018-07-14T01:41:44.763Z,22.37
2018-07-14T01:42:16.008Z,21.93
2018-07-14T01:42:47.211Z,21.40
2018-07-14T01:43:18.434Z,22.50
2018-07-14T01:43:49.684Z,21.77
2018-07-14T01:44:20.860Z,21.90
2018-07-14T01:44:52.029Z,21.90
2018-07-14T01:45:23.196Z,20.63
2018-07-14T01:45:54.371Z,22.03
2018-07-14T01:46:25.553Z,21.30
2018-07-14T01:46:56.743Z,21.27
2018-07-14T01:47:27.969Z,20.47
2018-07-14T01:47:59.241Z,19.30
2018-07-14T01:48:30.483Z,20.00
2018-07-14T01:49:01.724Z,21.13
2018-07-14T01:49:32.904Z,21.87
2018-07-14T01:50:04.083Z,21.57
2018-07-14T01:50:35.260Z,21.13
2018-07-14T01:51:06.443Z,21.07
2018-07-14T01:51:37.624Z,21.07
2018-07-14T01:52:08.852Z,20.80
2018-07-14T01:52:40.121Z,22.17
2018-07-14T01:53:11.373Z,22.57
2018-07-14T01:53:42.552Z,20.40
2018-07-14T01:54:14.735Z,21.00
2018-07-14T01:54:46.020Z,20.50
2018-07-14T01:55:17.788Z,21.27
2018-07-14T01:55:48.965Z,21.83
2018-07-14T01:56:20.197Z,19.93
2018-07-14T01:56:51.423Z,21.43
2018-07-14T01:57:22.600Z,19.23
2018-07-14T01:57:53.829Z,21.70
2018-07-14T01:58:25.335Z,19.97
2018-07-14T01:58:56.529Z,20.27
2018-07-14T01:59:27.751Z,19.47
2018-07-14T01:59:58.933Z,22.27
2018-07-14T02:00:30.134Z,21.33
2018-07-14T02:01:01.385Z,18.97
2018-07-14T02:01:32.613Z,20.53
2018-07-14T02:02:03.797Z,20.50
2018-07-14T02:02:34.972Z,19.77
2018-07-14T02:03:07.396Z,20.63
2018-07-14T02:03:38.568Z,18.87
2018-07-14T02:04:09.796Z,20.80
2018-07-14T02:04:41.587Z,21.97
2018-07-14T02:05:14.868Z,19.33
2018-07-14T02:05:46.120Z,20.57
2018-07-14T02:06:17.393Z,20.80
2018-07-14T02:06:48.573Z,20.47
2018-07-14T02:07:20.368Z,21.03
2018-07-14T02:07:51.589Z,20.13
2018-07-14T02:08:22.811Z,19.03
2018-07-14T02:08:54.001Z,20.83
2018-07-14T02:09:25.192Z,20.53
2018-07-14T02:09:56.460Z,19.33
2018-07-14T02:10:27.666Z,19.13
2018-07-14T02:10:58.854Z,18.47
2018-07-14T02:11:30.286Z,19.90
2018-07-14T02:12:01.555Z,20.50
2018-07-14T02:12:32.735Z,20.13
2018-07-14T02:13:03.917Z,19.47
2018-07-14T02:13:35.159Z,18.50
2018-07-14T02:14:06.348Z,20.37
2018-07-14T02:14:37.636Z,19.80
2018-07-14T02:15:08.824Z,20.87
2018-07-14T02:15:40.069Z,20.50
2018-07-14T02:16:11.249Z,22.10
2018-07-14T02:16:42.426Z,19.83
2018-07-14T02:17:13.598Z,19.77
2018-07-14T02:17:44.808Z,20.90
2018-07-14T02:18:15.981Z,19.93
2018-07-14T02:18:47.194Z,20.20
2018-07-14T02:19:18.433Z,19.80
2018-07-14T02:19:49.608Z,19.40
2018-07-14T02:20:20.744Z,19.77
2018-07-14T02:20:51.859Z,19.03
2018-07-14T02:21:22.967Z,19.53
2018-07-14T02:21:54.080Z,19.23
2018-07-14T02:22:25.206Z,19.10
2018-07-14T02:22:56.361Z,18.57
2018-07-14T02:23:27.530Z,19.90
2018-07-14T02:23:58.712Z,20.07
2018-07-14T02:24:29.863Z,19.03
2018-07-14T02:25:01.032Z,19.43
2018-07-14T02:25:32.152Z,18.83
2018-07-14T02:26:03.260Z,19.43
2018-07-14T02:26:34.388Z,17.47
2018-07-14T02:27:06.212Z,17.73
2018-07-14T02:27:37.415Z,19.17
2018-07-14T02:28:08.526Z,17.97
2018-07-14T02:28:39.656Z,18.70
2018-07-14T02:29:10.834Z,18.33
2018-07-14T02:29:41.954Z,19.47
2018-07-14T02:30:13.098Z,18.83
2018-07-14T02:30:44.265Z,19.40
2018-07-14T02:31:15.386Z,18.43
2018-07-14T02:31:46.508Z,18.50
2018-07-14T02:32:17.785Z,16.87
2018-07-14T02:32:49.010Z,18.57
2018-07-14T02:33:20.846Z,18.60
2018-07-14T02:33:52.017Z,18.67
2018-07-14T02:34:23.253Z,17.80
2018-07-14T02:34:57.313Z,16.93
2018-07-14T02:35:28.551Z,18.30
2018-07-14T02:35:59.737Z,19.90
2018-07-14T02:36:30.977Z,18.50
2018-07-14T02:37:02.209Z,17.40
2018-07-14T02:37:33.501Z,18.50
2018-07-14T02:38:04.680Z,18.67
2018-07-14T02:38:35.871Z,18.47
2018-07-14T02:39:07.641Z,19.40
2018-07-14T02:39:38.833Z,18.30
2018-07-14T02:40:10.001Z,17.90
2018-07-14T02:40:41.206Z,18.60
2018-07-14T02:41:12.482Z,19.00
2018-07-14T02:41:43.772Z,18.20
2018-07-14T02:42:14.986Z,18.50
2018-07-14T02:42:46.149Z,18.60
2018-07-14T02:43:17.317Z,19.80
2018-07-14T02:43:48.494Z,17.87
2018-07-14T02:44:19.677Z,18.47
2018-07-14T02:44:50.868Z,19.53
2018-07-14T02:45:22.040Z,19.07
2018-07-14T02:45:53.228Z,19.00
2018-07-14T02:46:24.438Z,19.57
2018-07-14T02:46:57.818Z,19.27
2018-07-14T02:47:28.990Z,19.00
2018-07-14T02:48:00.164Z,18.50
2018-07-14T02:48:31.392Z,17.90
2018-07-14T02:49:02.644Z,18.10
2018-07-14T02:49:33.879Z,19.10
2018-07-14T02:50:05.127Z,18.93
2018-07-14T02:50:36.311Z,18.17
2018-07-14T02:51:07.537Z,18.33
2018-07-14T02:51:38.813Z,17.93
2018-07-14T02:52:10.045Z,17.57
2018-07-14T02:52:41.314Z,18.70
2018-07-14T02:53:12.488Z,17.67
2018-07-14T02:53:43.663Z,18.07
2018-07-14T02:54:14.897Z,17.87
2018-07-14T02:54:46.081Z,17.57
2018-07-14T02:55:17.257Z,18.00
2018-07-14T02:55:48.428Z,16.97
2018-07-14T02:56:19.613Z,17.90
2018-07-14T02:56:50.834Z,17.30
2018-07-14T02:57:22.007Z,17.03
2018-07-14T02:57:53.179Z,18.17
2018-07-14T02:58:24.401Z,17.37
2018-07-14T02:58:55.581Z,18.53
2018-07-14T02:59:26.769Z,18.03
2018-07-14T02:59:57.963Z,17.93
2018-07-14T03:00:29.148Z,18.57
2018-07-14T03:01:00.326Z,17.40
2018-07-14T03:01:35.940Z,18.07
2018-07-14T03:02:08.082Z,16.77
2018-07-14T03:02:39.268Z,17.13
2018-07-14T03:03:12.199Z,17.43
2018-07-14T03:03:43.433Z,17.87
2018-07-14T03:04:14.636Z,17.63
2018-07-14T03:04:45.821Z,17.20
2018-07-14T03:05:19.884Z,17.57
2018-07-14T03:05:51.071Z,16.73
2018-07-14T03:06:22.260Z,17.13
2018-07-14T03:06:53.489Z,18.07
2018-07-14T03:07:24.753Z,15.93
2018-07-14T03:07:55.937Z,15.10
2018-07-14T03:08:27.165Z,16.83
2018-07-14T03:08:58.424Z,16.40
2018-07-14T03:09:29.615Z,17.00
2018-07-14T03:10:00.837Z,15.83
2018-07-14T03:10:32.017Z,15.63
2018-07-14T03:11:03.202Z,17.03
2018-07-14T03:11:34.443Z,15.83
2018-07-14T03:12:05.625Z,16.27
2018-07-14T03:12:36.804Z,16.10
2018-07-14T03:13:08.041Z,15.43
2018-07-14T03:13:39.217Z,16.37
2018-07-14T03:14:10.397Z,15.33
2018-07-14T03:14:41.568Z,15.27
2018-07-14T03:15:12.796Z,14.23
2018-07-14T03:15:43.976Z,15.37
2018-07-14T03:16:15.188Z,16.37
2018-07-14T03:16:46.394Z,15.43
2018-07-14T03:17:17.584Z,14.47
2018-07-14T03:17:49.336Z,14.53
2018-07-14T03:18:20.506Z,14.97
2018-07-14T03:18:51.679Z,15.03
2018-07-14T03:19:22.910Z,15.07
2018-07-14T03:19:54.107Z,15.27
2018-07-14T03:20:25.288Z,14.17
2018-07-14T03:20:56.509Z,14.70
2018-07-14T03:21:27.689Z,15.20
2018-07-14T03:21:58.957Z,14.67
2018-07-14T03:22:30.190Z,14.93
2018-07-14T03:23:01.435Z,14.73
2018-07-14T03:23:32.613Z,15.23
2018-07-14T03:24:03.778Z,14.53
2018-07-14T03:24:35.005Z,14.47
2018-07-14T03:25:06.188Z,14.60
2018-07-14T03:25:37.413Z,14.27
2018-07-14T03:26:08.589Z,14.57
2018-07-14T03:26:39.817Z,13.67
2018-07-14T03:27:11.028Z,14.03
2018-07-14T03:27:42.213Z,14.63
2018-07-14T03:28:13.715Z,12.63
2018-07-14T03:28:44.936Z,13.80
2018-07-14T03:29:16.144Z,13.70
2018-07-14T03:29:47.361Z,13.40
2018-07-14T03:30:18.602Z,13.80
2018-07-14T03:30:49.785Z,14.20
2018-07-14T03:31:20.972Z,13.63
2018-07-14T03:31:52.201Z,13.20
2018-07-14T03:32:23.436Z,12.13
2018-07-14T03:32:54.667Z,12.30
2018-07-14T03:33:25.914Z,12.17
2018-07-14T03:33:57.104Z,14.10
2018-07-14T03:34:28.288Z,12.07
2018-07-14T03:34:59.493Z,12.80
2018-07-14T03:35:30.691Z,12.47
2018-07-14T03:36:01.873Z,12.30
2018-07-14T03:36:33.120Z,12.67
2018-07-14T03:37:04.270Z,12.70
2018-07-14T03:37:35.477Z,13.20
2018-07-14T03:38:06.668Z,12.80
2018-07-14T03:38:37.896Z,11.63
2018-07-14T03:39:09.125Z,13.83
2018-07-14T03:39:40.344Z,12.40
2018-07-14T03:40:11.530Z,12.30
2018-07-14T03:40:43.585Z,12.60
2018-07-14T03:41:14.825Z,12.73
2018-07-14T03:41:46.071Z,11.80
2018-07-14T03:42:17.341Z,12.53
2018-07-14T03:42:48.545Z,12.97
2018-07-14T03:43:19.724Z,12.73
2018-07-14T03:43:50.908Z,11.97
2018-07-14T03:44:23.095Z,12.27
2018-07-14T03:44:55.293Z,12.93
2018-07-14T03:45:26.580Z,12.50
2018-07-14T03:45:57.769Z,11.00
2018-07-14T03:46:28.949Z,11.83
2018-07-14T03:47:00.131Z,12.10
2018-07-14T03:47:31.310Z,12.17
2018-07-14T03:48:02.541Z,12.00
2018-07-14T03:48:33.772Z,12.67
2018-07-14T03:49:04.949Z,12.60
2018-07-14T03:49:36.129Z,12.17
2018-07-14T03:50:07.317Z,12.83
2018-07-14T03:50:38.545Z,12.43
2018-07-14T03:51:09.830Z,12.00
2018-07-14T03:51:41.057Z,12.27
2018-07-14T03:52:12.244Z,12.57
2018-07-14T03:52:43.440Z,11.60
2018-07-14T03:53:14.685Z,11.97
2018-07-14T03:53:45.873Z,12.13
2018-07-14T03:54:17.092Z,14.57
2018-07-14T03:54:48.321Z,11.73
2018-07-14T03:55:19.505Z,11.33
2018-07-14T03:55:50.750Z,11.90
2018-07-14T03:56:21.996Z,11.63
2018-07-14T03:56:53.300Z,12.00
2018-07-14T03:57:24.482Z,11.53
2018-07-14T03:57:55.662Z,10.67
2018-07-14T03:58:26.845Z,11.47
2018-07-14T03:58:58.085Z,11.47
2018-07-14T03:59:29.272Z,11.93
2018-07-14T04:00:00.497Z,11.43
2018-07-14T04:00:31.741Z,11.33
2018-07-14T04:01:02.936Z,10.70
2018-07-14T04:01:34.123Z,11.87
2018-07-14T04:02:06.201Z,10.40
2018-07-14T04:02:37.431Z,10.43
2018-07-14T04:03:08.627Z,10.60
2018-07-14T04:03:39.861Z,10.73
2018-07-14T04:04:11.104Z,11.57
2018-07-14T04:04:43.059Z,12.50
2018-07-14T04:05:14.286Z,11.10
2018-07-14T04:05:45.464Z,10.50
2018-07-14T04:06:16.651Z,10.00
2018-07-14T04:06:47.885Z,10.47
2018-07-14T04:07:19.146Z,9.33
2018-07-14T04:07:50.389Z,10.23
2018-07-14T04:08:21.584Z,10.33
2018-07-14T04:08:52.760Z,10.73
2018-07-14T04:09:23.942Z,10.87
2018-07-14T04:09:55.121Z,10.37
2018-07-14T04:10:26.412Z,10.30
2018-07-14T04:10:57.600Z,10.20
2018-07-14T04:11:28.781Z,10.17
2018-07-14T04:11:59.962Z,9.90
2018-07-14T04:12:31.205Z,10.30
2018-07-14T04:13:02.392Z,9.37
2018-07-14T04:13:34.571Z,10.70
2018-07-14T04:14:05.765Z,10.60
2018-07-14T04:14:37.019Z,10.67
2018-07-14T04:15:08.250Z,11.10
2018-07-14T04:15:39.521Z,10.27
2018-07-14T04:16:10.760Z,10.40
2018-07-14T04:16:41.953Z,10.43
2018-07-14T04:17:13.132Z,9.97
2018-07-14T04:17:44.406Z,9.50
2018-07-14T04:18:16.245Z,9.77
2018-07-14T04:18:47.481Z,10.80
2018-07-14T04:19:18.783Z,9.77
2018-07-14T04:19:50.021Z,10.60
2018-07-14T04:20:21.261Z,10.27
2018-07-14T04:20:52.529Z,9.27
2018-07-14T04:21:23.710Z,9.63
2018-07-14T04:21:54.896Z,10.57
2018-07-14T04:22:26.604Z,8.93
2018-07-14T04:22:57.817Z,9.10
2018-07-14T04:23:29.225Z,9.90
2018-07-14T04:24:00.412Z,9.77
2018-07-14T04:24:31.653Z,9.17
2018-07-14T04:25:02.856Z,8.97
2018-07-14T04:25:34.083Z,9.43
2018-07-14T04:26:05.279Z,8.67
2018-07-14T04:26:37.060Z,9.13
2018-07-14T04:27:08.297Z,9.93
2018-07-14T04:27:39.480Z,9.23
2018-07-14T04:28:10.652Z,8.87
2018-07-14T04:28:41.870Z,9.80
2018-07-14T04:29:13.109Z,8.90
2018-07-14T04:29:45.542Z,8.47
2018-07-14T04:30:16.720Z,9.43
2018-07-14T04:30:47.915Z,8.43
2018-07-14T04:31:19.694Z,9.53
2018-07-14T04:31:50.936Z,9.33
2018-07-14T04:32:22.188Z,8.67
2018-07-14T04:32:53.408Z,9.10
2018-07-14T04:33:24.604Z,9.13
2018-07-14T04:33:55.781Z,9.00
2018-07-14T04:34:26.966Z,8.70
2018-07-14T04:34:58.250Z,8.60
2018-07-14T04:35:30.420Z,8.00
2018-07-14T04:36:01.714Z,9.30
2018-07-14T04:36:32.904Z,10.03
2018-07-14T04:37:04.087Z,8.37
2018-07-14T04:37:35.325Z,9.13
2018-07-14T04:38:06.580Z,8.63
2018-07-14T04:38:37.817Z,8.70
2018-07-14T04:39:09.081Z,8.13
2018-07-14T04:39:40.265Z,8.10
2018-07-14T04:40:11.441Z,8.47
2018-07-14T04:40:42.612Z,8.83
2018-07-14T04:41:13.798Z,10.70
2018-07-14T04:41:45.041Z,8.53
2018-07-14T04:42:16.309Z,8.60
2018-07-14T04:42:47.515Z,7.50
2018-07-14T04:43:18.761Z,7.57
2018-07-14T04:43:49.982Z,7.40
2018-07-14T04:44:21.200Z,8.57
2018-07-14T04:44:52.441Z,7.57
2018-07-14T04:45:23.685Z,7.63
2018-07-14T04:45:55.192Z,8.07
2018-07-14T04:46:26.389Z,8.03
2018-07-14T04:46:57.565Z,7.70
2018-07-14T04:47:28.794Z,7.90
2018-07-14T04:47:59.994Z,7.63
2018-07-14T04:48:31.294Z,7.53
2018-07-14T04:49:02.489Z,7.30
2018-07-14T04:49:33.680Z,7.40
2018-07-14T04:50:04.917Z,7.67
2018-07-14T04:50:36.165Z,7.60
2018-07-14T04:51:07.368Z,7.97
2018-07-14T04:51:38.609Z,7.10
2018-07-14T04:52:09.808Z,8.17
2018-07-14T04:52:41.045Z,7.50
2018-07-14T04:53:12.281Z,6.47
2018-07-14T04:53:44.265Z,7.10
2018-07-14T04:54:15.506Z,7.00
2018-07-14T04:54:46.713Z,7.60
2018-07-14T04:55:17.900Z,7.47
2018-07-14T04:55:49.084Z,7.33
2018-07-14T04:56:20.312Z,7.50
2018-07-14T04:56:51.548Z,6.60
2018-07-14T04:57:22.752Z,7.37
2018-07-14T04:57:53.924Z,7.00
2018-07-14T04:58:25.106Z,7.20
2018-07-14T04:58:56.324Z,7.13
2018-07-14T04:59:27.500Z,7.30
2018-07-14T04:59:58.689Z,7.00
2018-07-14T05:00:29.868Z,9.77
2018-07-14T05:01:01.103Z,7.50
2018-07-14T05:01:32.354Z,7.13
2018-07-14T05:02:03.536Z,7.37
2018-07-14T05:02:34.776Z,7.17
2018-07-14T05:03:05.952Z,8.20
2018-07-14T05:03:37.132Z,6.53
2018-07-14T05:04:08.369Z,6.27
2018-07-14T05:04:39.556Z,7.17
2018-07-14T05:05:10.728Z,6.80
2018-07-14T05:05:41.956Z,6.83
2018-07-14T05:06:13.188Z,6.80
2018-07-14T05:06:44.366Z,6.60
2018-07-14T05:07:15.556Z,7.00
2018-07-14T05:07:46.765Z,7.60
2018-07-14T05:08:17.931Z,6.93
2018-07-14T05:08:49.100Z,8.50
2018-07-14T05:09:20.381Z,6.33
2018-07-14T05:09:51.616Z,6.53
2018-07-14T05:10:22.809Z,6.07
2018-07-14T05:10:53.998Z,6.77
2018-07-14T05:11:25.224Z,6.87
2018-07-14T05:11:57.139Z,6.50
2018-07-14T05:12:28.369Z,6.45
2018-07-14T05:12:59.964Z,6.97
2018-07-14T05:13:31.152Z,6.92
2018-07-14T05:14:02.372Z,6.22
2018-07-14T05:14:36.423Z,6.37
2018-07-14T05:15:07.616Z,6.95
2018-07-14T05:15:39.517Z,7.00
2018-07-14T05:16:10.700Z,6.22
2018-07-14T05:16:44.017Z,6.12
2018-07-14T05:17:15.199Z,5.65
2018-07-14T05:17:51.196Z,6.40
2018-07-14T05:18:22.394Z,6.08
2018-07-14T05:18:53.626Z,6.12
2018-07-14T05:19:25.109Z,6.22
2018-07-14T05:19:56.935Z,6.20
2018-07-14T05:20:28.196Z,6.03
2018-07-14T05:20:59.428Z,5.87
2018-07-14T05:21:30.624Z,5.78
2018-07-14T05:22:01.814Z,6.45
2018-07-14T05:22:33.047Z,5.60
2018-07-14T05:23:04.237Z,5.92
2018-07-14T05:23:35.412Z,6.70
2018-07-14T05:24:06.642Z,6.62
2018-07-14T05:24:37.828Z,5.40
2018-07-14T05:25:09.037Z,5.47
2018-07-14T05:25:40.206Z,5.70
2018-07-14T05:26:11.434Z,5.60
2018-07-14T05:26:42.612Z,6.20
2018-07-14T05:27:13.834Z,5.95
2018-07-14T05:27:45.024Z,5.40
2018-07-14T05:28:16.193Z,6.20
2018-07-14T05:28:47.362Z,5.50
2018-07-14T05:29:18.528Z,5.87
2018-07-14T05:29:49.786Z,5.77
2018-07-14T05:30:21.013Z,5.67
2018-07-14T05:30:52.181Z,6.42
2018-07-14T05:31:23.397Z,5.97
2018-07-14T05:31:54.624Z,5.58
2018-07-14T05:32:25.824Z,6.60
2018-07-14T05:32:57.083Z,5.72
2018-07-14T05:33:28.261Z,5.85
2018-07-14T05:33:59.428Z,5.62
2018-07-14T05:34:30.592Z,5.40
2018-07-14T05:35:01.802Z,5.37
2018-07-14T05:35:32.974Z,6.75
2018-07-14T05:36:04.225Z,5.65
2018-07-14T05:36:35.408Z,5.80
2018-07-14T05:37:06.629Z,5.62
2018-07-14T05:37:37.812Z,6.03
2018-07-14T05:38:08.980Z,5.05
2018-07-14T05:38:40.205Z,5.58
2018-07-14T05:39:11.416Z,7.05
2018-07-14T05:39:42.640Z,5.58
2018-07-14T05:40:13.832Z,5.55
2018-07-14T05:40:45.008Z,5.25
2018-07-14T05:41:16.180Z,5.60
2018-07-14T05:41:47.392Z,4.97
2018-07-14T05:42:18.613Z,5.08
2018-07-14T05:42:49.840Z,5.53
2018-07-14T05:43:21.011Z,5.30
2018-07-14T05:43:52.182Z,4.90
2018-07-14T05:44:23.362Z,5.40
2018-07-14T05:44:54.584Z,5.17
2018-07-14T05:45:25.762Z,4.92
2018-07-14T05:45:56.934Z,5.28
2018-07-14T05:46:28.157Z,5.30
2018-07-14T05:46:59.345Z,5.92
2018-07-14T05:47:30.577Z,5.00
2018-07-14T05:48:01.857Z,4.97
2018-07-14T05:48:33.055Z,6.05
2018-07-14T05:49:04.224Z,6.03
2018-07-14T05:49:35.443Z,5.75
2018-07-14T05:50:06.670Z,5.10
2018-07-14T05:50:37.852Z,5.33
2018-07-14T05:51:09.060Z,5.25
2018-07-14T05:51:40.233Z,5.33
2018-07-14T05:52:11.543Z,5.28
2018-07-14T05:52:42.660Z,5.40
2018-07-14T05:53:13.824Z,4.37
2018-07-14T05:53:45.054Z,5.47
2018-07-14T05:54:16.281Z,5.90
2018-07-14T05:54:47.453Z,5.93
2018-07-14T05:55:18.618Z,5.40
2018-07-14T05:55:49.788Z,6.70
2018-07-14T05:56:20.960Z,5.40
2018-07-14T05:56:52.137Z,5.60
2018-07-14T05:57:23.355Z,7.07
2018-07-14T05:57:54.577Z,5.15
2018-07-14T05:58:25.752Z,5.65
2018-07-14T05:58:56.916Z,5.53
2018-07-14T05:59:28.080Z,4.87
2018-07-14T05:59:59.253Z,6.30
2018-07-14T06:00:30.422Z,5.67
2018-07-14T06:01:01.593Z,4.87
2018-07-14T06:01:32.768Z,5.77
2018-07-14T06:02:03.941Z,5.10
2018-07-14T06:02:35.157Z,5.65
2018-07-14T06:03:06.377Z,6.15
2018-07-14T06:03:37.559Z,6.25
2018-07-14T06:04:08.726Z,5.45
2018-07-14T06:04:39.958Z,5.62
2018-07-14T06:05:11.138Z,5.47
2018-07-14T06:05:42.361Z,5.30
2018-07-14T06:06:13.548Z,5.10
2018-07-14T06:06:44.749Z,5.25
2018-07-14T06:07:15.969Z,5.53
2018-07-14T06:07:47.160Z,6.70
2018-07-14T06:08:18.343Z,5.77
2018-07-14T06:08:49.556Z,6.55
2018-07-14T06:09:20.773Z,5.40
2018-07-14T06:09:51.954Z,6.17
2018-07-14T06:10:23.176Z,6.23
2018-07-14T06:10:54.394Z,6.30
2018-07-14T06:11:25.568Z,7.10
2018-07-14T06:11:56.732Z,5.83
2018-07-14T06:12:27.949Z,5.37
2018-07-14T06:12:59.124Z,5.40
2018-07-14T06:13:30.337Z,5.83
2018-07-14T06:14:01.610Z,5.70
2018-07-14T06:14:32.787Z,7.73
2018-07-14T06:15:04.013Z,5.70
2018-07-14T06:15:35.240Z,5.40
2018-07-14T06:16:06.473Z,5.03
2018-07-14T06:16:37.666Z,5.77
2018-07-14T06:17:08.879Z,5.33
2018-07-14T06:17:40.038Z,5.97
2018-07-14T06:18:11.326Z,5.20
2018-07-14T06:18:42.524Z,5.50
2018-07-14T06:19:13.697Z,4.70
2018-07-14T06:19:44.883Z,5.00
2018-07-14T06:20:16.118Z,5.60
2018-07-14T06:20:47.295Z,5.57
2018-07-14T06:21:18.474Z,5.50
2018-07-14T06:21:49.650Z,5.47
2018-07-14T06:22:20.832Z,5.30
2018-07-14T06:22:52.017Z,5.73
2018-07-14T06:23:23.196Z,5.33
2018-07-14T06:23:54.366Z,5.37
2018-07-14T06:24:25.541Z,5.50
2018-07-14T06:24:56.754Z,4.87
2018-07-14T06:25:27.973Z,4.80
2018-07-14T06:25:59.148Z,5.50
2018-07-14T06:26:30.320Z,6.07
2018-07-14T06:27:01.546Z,5.50
2018-07-14T06:27:32.777Z,5.13
2018-07-14T06:28:03.957Z,5.20
2018-07-14T06:28:35.185Z,4.70
2018-07-14T06:29:06.461Z,5.03
2018-07-14T06:29:37.701Z,4.70
2018-07-14T06:30:08.926Z,4.40
2018-07-14T06:30:40.112Z,4.83
2018-07-14T06:31:11.301Z,7.10
2018-07-14T06:31:42.515Z,4.43
2018-07-14T06:32:13.743Z,5.60
2018-07-14T06:32:44.920Z,4.95
2018-07-14T06:33:16.094Z,4.57
2018-07-14T06:33:47.260Z,4.90
2018-07-14T06:34:18.483Z,5.60
2018-07-14T06:34:49.757Z,4.80
2018-07-14T06:35:20.937Z,4.30
2018-07-14T06:35:52.177Z,4.60
2018-07-14T06:36:23.357Z,4.30
2018-07-14T06:36:54.577Z,4.27
2018-07-14T06:37:25.810Z,4.80
2018-07-14T06:37:56.998Z,4.47
2018-07-14T06:38:28.226Z,5.50
2018-07-14T06:38:59.430Z,4.00
2018-07-14T06:39:30.657Z,4.17
2018-07-14T06:40:01.877Z,4.10
2018-07-14T06:40:33.044Z,4.03
2018-07-14T06:41:04.227Z,4.17
2018-07-14T06:41:35.403Z,4.30
2018-07-14T06:42:06.615Z,4.30
2018-07-14T06:42:37.788Z,3.80
2018-07-14T06:43:09.018Z,3.93
2018-07-14T06:43:40.208Z,4.57
2018-07-14T06:44:11.441Z,3.97
2018-07-14T06:44:42.691Z,3.83
2018-07-14T06:45:13.845Z,4.57
2018-07-14T06:45:45.093Z,4.20
2018-07-14T06:46:16.300Z,4.40
2018-07-14T06:46:47.524Z,3.97
2018-07-14T06:47:18.761Z,5.73
2018-07-14T06:47:49.948Z,4.30
2018-07-14T06:48:21.126Z,4.63
2018-07-14T06:48:52.775Z,4.53
2018-07-14T06:49:23.964Z,5.65
2018-07-14T06:49:55.227Z,5.40